createdAt,value
2018-04-02T00:00:37.523Z,71.08
2018-04-02T00:03:05.841Z,71.26
2018-04-02T00:05:34.245Z,72.23
2018-04-02T00:08:02.651Z,71.88
2018-04-02T00:10:30.970Z,71.72
2018-04-02T00:12:59.340Z,71.97
2018-04-02T00:15:27.652Z,71.90
2018-04-02T00:17:56.000Z,72.12
2018-04-02T00:20:24.345Z,70.98
2018-04-02T00:22:53.456Z,70.78
2018-04-02T00:25:21.781Z,70.71
2018-04-02T00:27:50.193Z,70.91
2018-04-02T00:30:19.286Z,71.05
2018-04-02T00:32:47.662Z,71.27
2018-04-02T00:35:21.927Z,71.02
2018-04-02T00:37:50.263Z,71.40
2018-04-02T00:40:18.578Z,70.60
2018-04-02T00:42:46.951Z,70.48
2018-04-02T00:45:15.332Z,70.43
2018-04-02T00:47:43.654Z,71.16
2018-04-02T00:50:13.075Z,71.37
2018-04-02T00:52:41.500Z,71.34
2018-04-02T00:55:10.009Z,71.21
2018-04-02T00:57:40.604Z,71.43
2018-04-02T01:00:09.526Z,71.13
2018-04-02T01:02:37.852Z,71.01
2018-04-02T01:05:06.969Z,71.08
2018-04-02T01:07:35.270Z,70.79
2018-04-02T01:10:03.596Z,71.17
2018-04-02T01:12:32.136Z,71.40
2018-04-02T01:15:00.472Z,71.01
2018-04-02T01:17:28.794Z,71.30
2018-04-02T01:19:58.142Z,71.68
2018-04-02T01:22:26.654Z,71.66
2018-04-02T01:24:55.008Z,71.45
2018-04-02T01:27:23.559Z,71.21
2018-04-02T01:29:51.876Z,71.29
2018-04-02T01:32:20.356Z,70.61
2018-04-02T01:34:49.184Z,70.73
2018-04-02T01:37:17.533Z,71.11
2018-04-02T01:39:46.014Z,71.10
2018-04-02T01:42:14.356Z,71.24
2018-04-02T01:44:42.664Z,71.34
2018-04-02T01:47:10.982Z,71.14
2018-04-02T01:49:39.308Z,70.88
2018-04-02T01:52:07.768Z,71.25
2018-04-02T01:54:36.285Z,71.52
2018-04-02T01:57:05.147Z,71.63
2018-04-02T01:59:33.627Z,71.53
2018-04-02T02:02:02.159Z,72.58
2018-04-02T02:04:30.523Z,72.65
2018-04-02T02:06:59.028Z,72.29
2018-04-02T02:09:27.359Z,72.47
2018-04-02T02:11:55.885Z,71.79
2018-04-02T02:14:24.220Z,72.27
2018-04-02T02:16:53.342Z,72.92
2018-04-02T02:19:22.721Z,72.76
2018-04-02T02:21:51.778Z,72.83
2018-04-02T02:24:20.358Z,72.34
2018-04-02T02:26:48.732Z,72.53
2018-04-02T02:29:17.064Z,72.30
2018-04-02T02:31:46.347Z,72.71
2018-04-02T02:34:14.826Z,72.58
2018-04-02T02:36:43.525Z,73.03
2018-04-02T02:39:12.057Z,72.96
2018-04-02T02:41:40.465Z,72.45
2018-04-02T02:44:08.785Z,72.09
2018-04-02T02:46:37.249Z,71.92
2018-04-02T02:49:07.031Z,71.70
2018-04-02T02:51:35.486Z,71.92
2018-04-02T02:54:03.815Z,72.00
2018-04-02T02:56:32.935Z,72.33
2018-04-02T02:59:01.439Z,71.95
2018-04-02T03:01:29.778Z,71.59
2018-04-02T03:03:58.447Z,71.26
2018-04-02T03:06:28.274Z,71.89
2018-04-02T03:08:57.505Z,71.76
2018-04-02T03:11:26.165Z,72.20
2018-04-02T03:13:54.834Z,72.04
2018-04-02T03:16:23.132Z,71.95
2018-04-02T03:18:51.664Z,71.41
2018-04-02T03:21:20.080Z,71.85
2018-04-02T03:23:49.179Z,71.56
2018-04-02T03:26:17.886Z,71.37
2018-04-02T03:28:46.329Z,71.14
2018-04-02T03:31:17.706Z,71.06
2018-04-02T03:33:47.047Z,71.74
2018-04-02T03:36:15.529Z,71.37
2018-04-02T03:38:43.970Z,70.81
2018-04-02T03:41:12.510Z,71.23
2018-04-02T03:43:40.943Z,71.07
2018-04-02T03:46:10.091Z,71.26
2018-04-02T03:48:38.542Z,71.56
2018-04-02T03:51:07.213Z,71.58
2018-04-02T03:53:35.613Z,72.36
2018-04-02T03:56:03.993Z,71.78
2018-04-02T03:58:32.456Z,72.20
2018-04-02T04:01:00.846Z,72.10
2018-04-02T04:03:29.227Z,72.82
2018-04-02T04:05:58.149Z,72.87
2018-04-02T04:08:26.609Z,72.75
2018-04-02T04:10:55.326Z,72.82
2018-04-02T04:13:24.381Z,72.19
2018-04-02T04:15:52.729Z,73.07
2018-04-02T04:18:21.967Z,73.24
2018-04-02T04:20:50.436Z,73.92
2018-04-02T04:23:18.943Z,73.75
2018-04-02T04:25:48.020Z,73.22
2018-04-02T04:28:16.340Z,73.08
2018-04-02T04:30:45.059Z,72.86
2018-04-02T04:33:13.668Z,73.55
2018-04-02T04:35:42.376Z,73.88
2018-04-02T04:38:10.687Z,74.54
2018-04-02T04:40:39.044Z,74.35
2018-04-02T04:43:07.373Z,73.51
2018-04-02T04:45:36.031Z,73.17
2018-04-02T04:48:04.373Z,73.59
2018-04-02T04:50:32.793Z,73.18
2018-04-02T04:53:01.094Z,73.31
2018-04-02T04:55:30.430Z,73.92
2018-04-02T04:57:58.811Z,73.65
2018-04-02T05:00:27.109Z,74.65
2018-04-02T05:02:56.454Z,73.76
2018-04-02T05:05:24.835Z,73.00
2018-04-02T05:07:54.715Z,73.35
2018-04-02T05:10:23.336Z,73.14
2018-04-02T05:12:52.024Z,73.21
2018-04-02T05:15:20.360Z,73.40
2018-04-02T05:17:48.876Z,72.76
2018-04-02T05:20:17.965Z,72.03
2018-04-02T05:22:47.236Z,72.07
2018-04-02T05:25:15.640Z,72.45
2018-04-02T05:27:43.963Z,72.26
2018-04-02T05:30:12.349Z,71.34
2018-04-02T05:32:40.750Z,71.42
2018-04-02T05:35:09.068Z,71.26
2018-04-02T05:37:38.373Z,70.61
2018-04-02T05:40:07.569Z,70.41
2018-04-02T05:42:35.887Z,70.06
2018-04-02T05:45:04.280Z,70.45
2018-04-02T05:47:32.642Z,70.73
2018-04-02T05:50:00.973Z,70.95
2018-04-02T05:52:30.072Z,70.15
2018-04-02T05:54:59.223Z,70.45
2018-04-02T05:57:27.548Z,70.27
2018-04-02T05:59:55.905Z,69.22
2018-04-02T06:02:24.709Z,69.51
2018-04-02T06:04:53.047Z,69.05
2018-04-02T06:07:21.360Z,69.09
2018-04-02T06:09:49.725Z,68.58
2018-04-02T06:12:18.098Z,67.66
2018-04-02T06:14:46.431Z,68.90
2018-04-02T06:17:14.789Z,68.23
2018-04-02T06:19:43.113Z,68.21
2018-04-02T06:22:12.164Z,67.54
2018-04-02T06:24:42.291Z,66.67
2018-04-02T06:27:10.660Z,65.77
2018-04-02T06:29:39.737Z,65.53
2018-04-02T06:32:08.108Z,64.04
2018-04-02T06:34:36.476Z,63.63
2018-04-02T06:37:04.849Z,61.82
2018-04-02T06:39:33.133Z,60.83
2018-04-02T06:42:01.452Z,59.17
2018-04-02T06:44:29.776Z,57.56
2018-04-02T06:46:58.333Z,56.15
2018-04-02T06:49:26.662Z,54.74
2018-04-02T06:51:54.990Z,53.03
2018-04-02T06:54:23.346Z,53.10
2018-04-02T06:56:52.438Z,52.10
2018-04-02T06:59:21.579Z,51.63
2018-04-02T07:01:49.940Z,49.39
2018-04-02T07:04:18.298Z,47.83
2018-04-02T07:06:47.389Z,45.51
2018-04-02T07:09:16.592Z,44.36
2018-04-02T07:11:45.712Z,45.60
2018-04-02T07:14:14.035Z,45.87
2018-04-02T07:16:43.208Z,45.52
2018-04-02T07:19:11.554Z,46.08
2018-04-02T07:21:40.072Z,44.84
2018-04-02T07:24:08.456Z,42.18
2018-04-02T07:26:36.808Z,40.11
2018-04-02T07:29:05.135Z,39.67
2018-04-02T07:31:33.561Z,37.29
2018-04-02T07:34:01.936Z,35.99
2018-04-02T07:36:31.066Z,36.81
2018-04-02T07:38:59.457Z,37.08
2018-04-02T07:41:28.567Z,36.00
2018-04-02T07:43:56.943Z,34.41
2018-04-02T07:46:26.024Z,36.55
2018-04-02T07:48:54.344Z,37.06
2018-04-02T07:51:23.455Z,37.28
2018-04-02T07:53:51.857Z,38.89
2018-04-02T07:56:20.207Z,40.26
2018-04-02T07:58:48.553Z,41.11
2018-04-02T08:01:16.932Z,41.01
2018-04-02T08:03:45.273Z,45.10
2018-04-02T08:06:13.616Z,49.38
2018-04-02T08:08:43.380Z,49.59
2018-04-02T08:11:11.091Z,49.49
2018-04-02T08:13:39.445Z,45.29
2018-04-02T08:16:07.871Z,42.35
2018-04-02T08:18:36.978Z,38.59
2018-04-02T08:21:05.340Z,38.74
2018-04-02T08:23:33.738Z,43.52
2018-04-02T08:26:02.091Z,45.24
2018-04-02T08:28:31.217Z,43.07
2018-04-02T08:30:59.579Z,42.62
2018-04-02T08:33:27.911Z,40.29
2018-04-02T08:35:57.026Z,35.70
2018-04-02T08:38:25.430Z,36.18
2018-04-02T08:40:53.773Z,37.83
2018-04-02T08:43:22.099Z,37.33
2018-04-02T08:45:50.483Z,34.69
2018-04-02T08:48:18.796Z,28.91
2018-04-02T08:50:47.114Z,25.86
2018-04-02T08:53:16.232Z,26.89
2018-04-02T08:55:44.593Z,26.19
2018-04-02T08:58:12.946Z,25.73
2018-04-02T09:00:41.365Z,24.08
2018-04-02T09:03:09.756Z,26.60
2018-04-02T09:05:38.049Z,26.95
2018-04-02T09:08:06.417Z,27.25
2018-04-02T09:10:34.752Z,28.28
2018-04-02T09:13:03.056Z,26.26
2018-04-02T09:15:32.169Z,26.76
2018-04-02T09:18:00.505Z,27.22
2018-04-02T09:20:28.817Z,26.00
2018-04-02T09:22:57.686Z,24.85
2018-04-02T09:25:26.023Z,21.78
2018-04-02T09:27:54.330Z,19.67
2018-04-02T09:30:22.707Z,19.40
2018-04-02T09:32:51.040Z,19.37
2018-04-02T09:35:19.370Z,19.23
2018-04-02T09:37:48.600Z,18.97
2018-04-02T09:40:16.987Z,21.25
2018-04-02T09:42:45.342Z,25.37
2018-04-02T09:45:13.872Z,23.10
2018-04-02T09:47:43.075Z,20.58
2018-04-02T09:50:11.414Z,18.68
2018-04-02T09:52:39.765Z,16.97
2018-04-02T09:55:08.098Z,15.17
2018-04-02T09:57:36.437Z,15.39
2018-04-02T10:00:04.833Z,15.14
2018-04-02T10:02:37.080Z,15.75
2018-04-02T10:05:06.489Z,17.71
2018-04-02T10:07:34.619Z,17.12
2018-04-02T10:10:02.983Z,15.92
2018-04-02T10:12:31.317Z,15.37
2018-04-02T10:15:00.417Z,14.15
2018-04-02T10:17:28.791Z,13.30
2018-04-02T10:19:57.224Z,14.41
2018-04-02T10:22:25.518Z,13.96
2018-04-02T10:24:53.820Z,13.98
2018-04-02T10:27:23.020Z,13.85
2018-04-02T10:29:52.317Z,14.46
2018-04-02T10:32:20.590Z,13.59
2018-04-02T10:34:48.952Z,13.97
2018-04-02T10:37:17.287Z,13.65
2018-04-02T10:39:45.632Z,14.11
2018-04-02T10:42:14.799Z,14.25
2018-04-02T10:44:43.139Z,13.67
2018-04-02T10:47:11.497Z,13.82
2018-04-02T10:49:40.326Z,13.81
2018-04-02T10:52:08.664Z,14.01
2018-04-02T10:54:37.738Z,16.23
2018-04-02T10:57:06.180Z,18.29
2018-04-02T10:59:34.509Z,18.32
2018-04-02T11:02:03.630Z,16.80
2018-04-02T11:04:32.031Z,15.24
2018-04-02T11:07:00.345Z,13.82
2018-04-02T11:09:28.658Z,13.55
2018-04-02T11:11:58.127Z,14.47
2018-04-02T11:14:26.551Z,14.45
2018-04-02T11:16:54.904Z,14.49
2018-04-02T11:19:24.568Z,14.90
2018-04-02T11:21:52.901Z,16.09
2018-04-02T11:24:22.048Z,15.03
2018-04-02T11:26:50.463Z,14.59
2018-04-02T11:29:18.824Z,13.28
2018-04-02T11:31:47.158Z,12.96
2018-04-02T11:34:15.778Z,12.47
2018-04-02T11:36:44.084Z,12.41
2018-04-02T11:39:12.397Z,15.60
2018-04-02T11:41:40.741Z,17.32
2018-04-02T11:44:09.086Z,18.55
2018-04-02T11:46:37.426Z,15.76
2018-04-02T11:49:06.587Z,14.67
2018-04-02T11:51:35.720Z,13.60
2018-04-02T11:54:04.071Z,13.00
2018-04-02T11:56:32.781Z,13.16
2018-04-02T11:59:01.848Z,13.96
2018-04-02T12:01:30.196Z,18.32
2018-04-02T12:03:58.596Z,18.25
2018-04-02T12:06:26.866Z,16.12
2018-04-02T12:08:55.193Z,14.42
2018-04-02T12:11:23.537Z,14.17
2018-04-02T12:13:51.905Z,15.30
2018-04-02T12:16:20.322Z,17.68
2018-04-02T12:18:49.556Z,19.31
2018-04-02T12:21:17.857Z,21.47
2018-04-02T12:23:46.175Z,23.45
2018-04-02T12:26:15.356Z,22.81
2018-04-02T12:28:43.722Z,21.12
2018-04-02T12:31:12.052Z,18.46
2018-04-02T12:33:40.389Z,18.66
2018-04-02T12:36:10.371Z,18.17
2018-04-02T12:38:38.755Z,17.09
2018-04-02T12:41:07.275Z,17.59
2018-04-02T12:43:35.583Z,19.02
2018-04-02T12:46:03.952Z,21.93
2018-04-02T12:48:33.102Z,24.70
2018-04-02T12:51:01.381Z,24.79
2018-04-02T12:53:29.726Z,24.36
2018-04-02T12:55:58.087Z,24.80
2018-04-02T12:58:27.192Z,26.05
2018-04-02T13:00:55.506Z,28.67
2018-04-02T13:03:24.464Z,29.56
2018-04-02T13:05:52.815Z,29.77
2018-04-02T13:08:21.154Z,28.64
2018-04-02T13:10:49.544Z,30.17
2018-04-02T13:13:17.879Z,30.51
2018-04-02T13:15:46.213Z,30.70
2018-04-02T13:18:14.727Z,31.25
2018-04-02T13:20:43.250Z,31.42
2018-04-02T13:23:11.582Z,31.06
2018-04-02T13:25:40.750Z,32.29
2018-04-02T13:28:09.088Z,33.35
2018-04-02T13:30:37.445Z,33.59
2018-04-02T13:33:06.549Z,33.38
2018-04-02T13:35:35.637Z,33.81
2018-04-02T13:38:04.808Z,34.57
2018-04-02T13:40:33.169Z,33.64
2018-04-02T13:43:01.491Z,33.48
2018-04-02T13:45:30.585Z,34.10
2018-04-02T13:48:00.091Z,34.27
2018-04-02T13:50:29.501Z,33.30
2018-04-02T13:52:58.372Z,33.12
2018-04-02T13:55:27.520Z,33.67
2018-04-02T13:57:55.899Z,32.67
2018-04-02T14:00:24.284Z,30.56
2018-04-02T14:02:52.732Z,29.44
2018-04-02T14:05:21.058Z,29.96
2018-04-02T14:07:49.554Z,30.87
2018-04-02T14:10:19.207Z,31.92
2018-04-02T14:12:47.525Z,31.12
2018-04-02T14:15:15.931Z,31.38
2018-04-02T14:17:44.302Z,31.63
2018-04-02T14:20:13.406Z,31.61
2018-04-02T14:22:42.524Z,33.06
2018-04-02T14:25:11.653Z,32.63
2018-04-02T14:27:39.971Z,32.95
2018-04-02T14:30:08.374Z,33.62
2018-04-02T14:32:36.893Z,33.93
2018-04-02T14:35:05.306Z,34.31
2018-04-02T14:37:33.624Z,33.60
2018-04-02T14:40:02.857Z,32.66
2018-04-02T14:42:31.190Z,33.02
2018-04-02T14:45:00.288Z,33.52
2018-04-02T14:47:29.588Z,33.85
2018-04-02T14:49:57.934Z,33.35
2018-04-02T14:52:26.284Z,33.62
2018-04-02T14:54:54.937Z,35.63
2018-04-02T14:57:23.444Z,34.87
2018-04-02T14:59:51.761Z,34.81
2018-04-02T15:02:20.925Z,34.96
2018-04-02T15:04:49.240Z,35.15
2018-04-02T15:07:17.582Z,35.78
2018-04-02T15:12:20.305Z,36.40
2018-04-02T15:14:48.707Z,36.03
2018-04-02T15:17:17.060Z,36.56
2018-04-02T15:19:45.384Z,37.55
2018-04-02T15:22:14.500Z,37.63
2018-04-02T15:24:43.909Z,37.41
2018-04-02T15:27:12.297Z,36.94
2018-04-02T15:29:40.683Z,36.85
2018-04-02T15:32:09.010Z,36.62
2018-04-02T15:34:37.363Z,37.26
2018-04-02T15:37:05.797Z,36.58
2018-04-02T15:39:34.170Z,36.63
2018-04-02T15:42:03.632Z,37.67
2018-04-02T15:44:32.185Z,39.20
2018-04-02T15:47:00.545Z,39.55
2018-04-02T15:49:28.923Z,40.44
2018-04-02T15:51:57.302Z,40.80
2018-04-02T15:54:25.634Z,40.47
2018-04-02T15:56:54.634Z,39.96
2018-04-02T15:59:23.238Z,39.81
2018-04-02T16:01:52.352Z,39.74
2018-04-02T16:04:21.530Z,39.75
2018-04-02T16:06:50.709Z,39.48
2018-04-02T16:09:20.552Z,39.95
2018-04-02T16:11:49.661Z,40.04
2018-04-02T16:14:18.055Z,39.90
2018-04-02T16:16:46.377Z,40.63
2018-04-02T16:19:14.746Z,40.67
2018-04-02T16:21:43.462Z,40.80
2018-04-02T16:24:11.799Z,40.88
2018-04-02T16:26:40.118Z,40.40
2018-04-02T16:29:09.237Z,40.62
2018-04-02T16:31:37.573Z,41.20
2018-04-02T16:34:05.920Z,41.28
2018-04-02T16:36:34.297Z,41.62
2018-04-02T16:39:02.863Z,41.73
2018-04-02T16:41:31.270Z,42.58
2018-04-02T16:43:59.857Z,42.40
2018-04-02T16:46:28.186Z,42.86
2018-04-02T16:48:56.562Z,43.22
2018-04-02T16:51:24.938Z,43.22
2018-04-02T16:53:53.319Z,44.23
2018-04-02T16:56:22.438Z,45.43
2018-04-02T16:58:50.809Z,45.09
2018-04-02T17:01:19.140Z,44.77
2018-04-02T17:03:47.906Z,44.57
2018-04-02T17:06:16.590Z,44.34
2018-04-02T17:08:44.920Z,44.67
2018-04-02T17:11:14.038Z,45.22
2018-04-02T17:13:43.132Z,45.15
2018-04-02T17:16:12.205Z,44.86
2018-04-02T17:18:40.535Z,45.11
2018-04-02T17:21:08.905Z,45.43
2018-04-02T17:23:37.259Z,45.26
2018-04-02T17:26:06.342Z,45.51
2018-04-02T17:28:35.661Z,45.99
2018-04-02T17:31:04.021Z,46.41
2018-04-02T17:33:32.363Z,46.28
2018-04-02T17:36:00.715Z,46.16
2018-04-02T17:38:29.079Z,46.91
2018-04-02T17:40:57.456Z,46.62
2018-04-02T17:43:25.870Z,47.08
2018-04-02T17:45:54.221Z,47.53
2018-04-02T17:48:22.554Z,47.54
2018-04-02T17:50:51.269Z,47.75
2018-04-02T17:53:19.643Z,47.91
2018-04-02T17:55:48.761Z,48.83
2018-04-02T17:58:17.229Z,50.42
2018-04-02T18:00:45.677Z,50.79
2018-04-02T18:03:14.022Z,51.77
2018-04-02T18:05:42.380Z,52.69
2018-04-02T18:08:11.487Z,52.99
2018-04-02T18:10:39.871Z,54.44
2018-04-02T18:13:08.551Z,54.94
2018-04-02T18:15:36.865Z,54.89
2018-04-02T18:18:05.227Z,56.21
2018-04-02T18:20:33.597Z,55.89
2018-04-02T18:23:01.940Z,56.12
2018-04-02T18:25:30.681Z,56.03
2018-04-02T18:27:59.056Z,56.08
2018-04-02T18:30:27.424Z,55.16
2018-04-02T18:32:55.754Z,56.08
2018-04-02T18:35:24.158Z,56.15
2018-04-02T18:37:53.243Z,56.67
2018-04-02T18:40:21.605Z,56.52
2018-04-02T18:42:50.759Z,57.28
2018-04-02T18:45:19.139Z,57.20
2018-04-02T18:47:47.457Z,56.67
2018-04-02T18:50:15.819Z,56.95
2018-04-02T18:52:44.170Z,56.99
2018-04-02T18:55:12.480Z,57.96
2018-04-02T18:57:40.984Z,57.77
2018-04-02T19:00:09.395Z,58.27
2018-04-02T19:02:37.746Z,57.17
2018-04-02T19:05:06.887Z,57.74
2018-04-02T19:07:35.207Z,57.59
2018-04-02T19:10:03.542Z,57.95
2018-04-02T19:12:31.891Z,57.56
2018-04-02T19:15:01.006Z,57.48
2018-04-02T19:17:29.331Z,57.23
2018-04-02T19:19:58.064Z,58.26
2018-04-02T19:22:26.394Z,58.34
2018-04-02T19:24:54.757Z,58.11
2018-04-02T19:27:23.138Z,58.35
2018-04-02T19:29:51.464Z,58.09
2018-04-02T19:32:20.547Z,58.53
2018-04-02T19:34:48.942Z,57.90
2018-04-02T19:37:17.258Z,58.27
2018-04-02T19:39:45.701Z,58.22
2018-04-02T19:42:14.183Z,58.46
2018-04-02T19:44:43.523Z,58.89
2018-04-02T19:47:12.016Z,58.75
2018-04-02T19:49:40.519Z,59.43
2018-04-02T19:52:08.861Z,59.26
2018-04-02T19:54:37.214Z,59.33
2018-04-02T19:57:05.686Z,58.58
2018-04-02T19:59:34.181Z,58.03
2018-04-02T20:02:02.563Z,57.40
2018-04-02T20:04:31.133Z,57.77
2018-04-02T20:07:00.236Z,58.31
2018-04-02T20:09:28.590Z,58.40
2018-04-02T20:11:57.201Z,58.50
2018-04-02T20:14:25.892Z,60.53
2018-04-02T20:16:54.241Z,60.32
2018-04-02T20:19:22.636Z,59.54
2018-04-02T20:21:51.741Z,59.91
2018-04-02T20:24:20.079Z,61.12
2018-04-02T20:26:48.920Z,60.77
2018-04-02T20:29:17.258Z,60.81
2018-04-02T20:31:45.602Z,60.29
2018-04-02T20:34:14.744Z,60.43
2018-04-02T20:36:43.080Z,60.43
2018-04-02T20:39:11.396Z,60.29
2018-04-02T20:41:40.112Z,60.51
2018-04-02T20:44:09.201Z,60.48
2018-04-02T20:46:37.560Z,61.15
2018-04-02T20:49:06.331Z,61.67
2018-04-02T20:51:35.493Z,61.83
2018-04-02T20:54:03.845Z,61.20
2018-04-02T20:56:32.195Z,61.27
2018-04-02T20:59:00.614Z,61.23
2018-04-02T21:01:29.019Z,61.21
2018-04-02T21:03:57.389Z,61.85
2018-04-02T21:06:25.730Z,61.83
2018-04-02T21:08:54.849Z,61.50
2018-04-02T21:11:23.513Z,61.49
2018-04-02T21:13:52.607Z,61.32
2018-04-02T21:16:21.704Z,61.71
2018-04-02T21:18:50.842Z,61.51
2018-04-02T21:21:19.192Z,60.85
2018-04-02T21:23:47.531Z,60.45
2018-04-02T21:26:15.916Z,60.26
2018-04-02T21:28:44.270Z,60.32
2018-04-02T21:31:12.592Z,60.10
2018-04-02T21:33:41.035Z,60.35
2018-04-02T21:36:09.349Z,60.18
2018-04-02T21:38:37.703Z,59.89
2018-04-02T21:41:06.070Z,60.27
2018-04-02T21:43:34.621Z,59.98
2018-04-02T21:46:03.264Z,60.58
2018-04-02T21:48:31.710Z,60.14
2018-04-02T21:51:00.058Z,60.40
2018-04-02T21:53:29.128Z,60.84
2018-04-02T21:55:57.583Z,60.51
2018-04-02T21:58:25.884Z,61.43
2018-04-02T22:00:54.241Z,60.78
2018-04-02T22:03:22.629Z,60.77
2018-04-02T22:05:51.026Z,61.07
2018-04-02T22:08:19.362Z,60.84
2018-04-02T22:10:47.772Z,60.80
2018-04-02T22:13:16.159Z,61.18
2018-04-02T22:15:45.289Z,60.53
2018-04-02T22:18:14.585Z,60.59
2018-04-02T22:20:43.711Z,60.27
2018-04-02T22:23:12.014Z,60.09
2018-04-02T22:25:40.435Z,60.36
2018-04-02T22:28:09.544Z,61.40
2018-04-02T22:30:37.972Z,61.33
2018-04-02T22:33:06.327Z,61.23
2018-04-02T22:35:34.681Z,61.83
2018-04-02T22:38:03.028Z,61.09
2018-04-02T22:40:33.108Z,61.03
2018-04-02T22:43:01.705Z,61.18
2018-04-02T22:45:30.136Z,61.25
2018-04-02T22:47:59.247Z,62.05
2018-04-02T22:50:27.560Z,62.34
2018-04-02T22:52:55.906Z,62.05
2018-04-02T22:55:24.274Z,61.31
2018-04-02T22:57:53.418Z,61.46
2018-04-02T23:00:22.737Z,61.12
2018-04-02T23:02:51.174Z,61.99
2018-04-02T23:05:19.606Z,61.67
2018-04-02T23:07:48.177Z,62.10
2018-04-02T23:10:16.745Z,62.36
2018-04-02T23:12:45.120Z,62.09
2018-04-02T23:15:13.455Z,62.41
2018-04-02T23:17:42.019Z,63.59
2018-04-02T23:20:10.397Z,64.05
2018-04-02T23:22:53.092Z,63.88
2018-04-02T23:25:21.466Z,65.69
2018-04-02T23:27:49.978Z,65.47
2018-04-02T23:30:18.309Z,65.27
2018-04-02T23:32:49.044Z,66.16
2018-04-02T23:35:17.411Z,66.91
2018-04-02T23:37:45.802Z,66.87
2018-04-02T23:40:14.120Z,66.86
2018-04-02T23:42:43.105Z,66.27
2018-04-02T23:45:11.629Z,66.86
2018-04-02T23:47:39.973Z,66.25
2018-04-02T23:50:09.060Z,66.60
2018-04-02T23:52:37.388Z,68.10
2018-04-02T23:55:05.786Z,68.67
2018-04-02T23:57:34.123Z,69.19
